sensor_id;sensor_type;location;lat;lon;timestamp;pressure;altitude;pressure_sealevel;temperature;humidity
54417;BME280;40326;51.220;7.250;2022-11-20T00:01:08;97465.88;;;5.72;100.00
54417;BME280;40326;51.220;7.250;2022-11-20T00:03:35;97465.88;;;5.72;100.00
54417;BME280;40326;51.220;7.250;2022-11-20T00:06:04;97465.88;;;5.72;100.00
54417;BME280;40326;51.220;7.250;2022-11-20T00:08:30;97465.88;;;5.72;100.00
54417;BME280;40326;51.220;7.250;2022-11-20T00:10:55;97465.88;;;5.72;100.00
54417;BME280;40326;51.220;7.250;2022-11-20T00:13:20;97465.88;;;5.72;100.00
54417;BME280;40326;51.220;7.250;2022-11-20T00:15:46;97465.88;;;5.72;100.00
54417;BME280;40326;51.220;7.250;2022-11-20T00:18:11;97465.88;;;5.72;100.00
54417;BME280;40326;51.220;7.250;2022-11-20T00:20:36;97465.88;;;5.72;100.00
54417;BME280;40326;51.220;7.250;2022-11-20T00:23:02;97465.88;;;5.72;100.00
54417;BME280;40326;51.220;7.250;2022-11-20T00:25:27;97465.88;;;5.72;100.00
54417;BME280;40326;51.220;7.250;2022-11-20T00:27:52;97465.88;;;5.72;100.00
54417;BME280;40326;51.220;7.250;2022-11-20T00:30:18;97465.88;;;5.72;100.00
54417;BME280;40326;51.220;7.250;2022-11-20T00:32:43;97465.88;;;5.72;100.00
54417;BME280;40326;51.220;7.250;2022-11-20T00:35:08;97465.88;;;5.72;100.00
54417;BME280;40326;51.220;7.250;2022-11-20T00:37:33;97465.88;;;5.72;100.00
54417;BME280;40326;51.220;7.250;2022-11-20T00:39:59;97465.88;;;5.72;100.00
54417;BME280;40326;51.220;7.250;2022-11-20T00:42:24;97465.88;;;5.72;100.00
54417;BME280;40326;51.220;7.250;2022-11-20T00:44:50;97465.88;;;5.72;100.00
54417;BME280;40326;51.220;7.250;2022-11-20T00:47:15;97465.88;;;5.72;100.00
54417;BME280;40326;51.220;7.250;2022-11-20T00:49:40;97465.88;;;5.72;100.00
54417;BME280;40326;51.220;7.250;2022-11-20T00:52:06;97465.88;;;5.72;100.00
54417;BME280;40326;51.220;7.250;2022-11-20T00:54:31;97465.88;;;5.72;100.00
54417;BME280;40326;51.220;7.250;2022-11-20T00:56:56;97465.88;;;5.72;100.00
54417;BME280;40326;51.220;7.250;2022-11-20T00:59:22;97465.88;;;5.72;100.00
54417;BME280;40326;51.220;7.250;2022-11-20T01:01:47;97465.88;;;5.72;100.00
54417;BME280;40326;51.220;7.250;2022-11-20T01:04:12;97465.88;;;5.72;100.00
54417;BME280;40326;51.220;7.250;2022-11-20T01:06:38;97465.88;;;5.72;100.00
54417;BME280;40326;51.220;7.250;2022-11-20T01:09:10;97465.88;;;5.72;100.00
54417;BME280;40326;51.220;7.250;2022-11-20T01:11:38;97465.88;;;5.72;100.00
54417;BME280;40326;51.220;7.250;2022-11-20T01:14:05;97465.88;;;5.72;100.00
54417;BME280;40326;51.220;7.250;2022-11-20T01:16:36;97465.88;;;5.72;100.00
54417;BME280;40326;51.220;7.250;2022-11-20T01:19:03;97465.88;;;5.72;100.00
54417;BME280;40326;51.220;7.250;2022-11-20T01:21:34;97465.88;;;5.72;100.00
54417;BME280;40326;51.220;7.250;2022-11-20T01:24:01;97465.88;;;5.72;100.00
54417;BME280;40326;51.220;7.250;2022-11-20T01:26:30;97465.88;;;5.72;100.00
54417;BME280;40326;51.220;7.250;2022-11-20T01:28:56;97465.88;;;5.72;100.00
54417;BME280;40326;51.220;7.250;2022-11-20T06:02:51;97465.88;;;5.72;100.00
54417;BME280;40326;51.220;7.250;2022-11-20T06:05:16;97465.88;;;5.72;100.00
54417;BME280;40326;51.220;7.250;2022-11-20T06:07:41;97465.88;;;5.72;100.00
54417;BME280;40326;51.220;7.250;2022-11-20T06:10:07;97465.88;;;5.72;100.00
54417;BME280;40326;51.220;7.250;2022-11-20T06:12:32;97465.88;;;5.72;100.00
54417;BME280;40326;51.220;7.250;2022-11-20T06:14:59;97465.88;;;5.72;100.00
54417;BME280;40326;51.220;7.250;2022-11-20T06:17:25;97465.88;;;5.72;100.00
54417;BME280;40326;51.220;7.250;2022-11-20T06:19:50;97465.88;;;5.72;100.00
54417;BME280;40326;51.220;7.250;2022-11-20T06:22:15;97465.88;;;5.72;100.00
54417;BME280;40326;51.220;7.250;2022-11-20T06:24:41;97465.88;;;5.72;100.00
54417;BME280;40326;51.220;7.250;2022-11-20T06:27:06;97465.88;;;5.72;100.00
54417;BME280;40326;51.220;7.250;2022-11-20T06:29:31;97465.88;;;5.72;100.00
54417;BME280;40326;51.220;7.250;2022-11-20T06:31:57;97465.88;;;5.72;100.00
54417;BME280;40326;51.220;7.250;2022-11-20T06:34:22;97465.88;;;5.72;100.00
54417;BME280;40326;51.220;7.250;2022-11-20T06:36:47;97465.88;;;5.72;100.00
54417;BME280;40326;51.220;7.250;2022-11-20T06:39:12;97465.88;;;5.72;100.00
54417;BME280;40326;51.220;7.250;2022-11-20T06:41:38;97465.88;;;5.72;100.00
54417;BME280;40326;51.220;7.250;2022-11-20T06:44:04;97465.88;;;5.72;100.00
54417;BME280;40326;51.220;7.250;2022-11-20T06:46:30;97465.88;;;5.72;100.00
54417;BME280;40326;51.220;7.250;2022-11-20T06:48:56;97465.88;;;5.72;100.00
54417;BME280;40326;51.220;7.250;2022-11-20T06:51:21;97465.88;;;5.72;100.00
54417;BME280;40326;51.220;7.250;2022-11-20T06:53:46;97465.88;;;5.72;100.00
54417;BME280;40326;51.220;7.250;2022-11-20T06:56:11;97465.88;;;5.72;100.00
54417;BME280;40326;51.220;7.250;2022-11-20T06:58:37;97465.88;;;5.72;100.00
54417;BME280;40326;51.220;7.250;2022-11-20T07:01:06;97465.88;;;5.72;100.00
54417;BME280;40326;51.220;7.250;2022-11-20T07:03:32;97465.88;;;5.72;100.00
54417;BME280;40326;51.220;7.250;2022-11-20T07:05:58;97465.88;;;5.72;100.00
54417;BME280;40326;51.220;7.250;2022-11-20T07:08:25;97465.88;;;5.72;100.00
54417;BME280;40326;51.220;7.250;2022-11-20T07:10:56;97465.88;;;5.72;100.00
54417;BME280;40326;51.220;7.250;2022-11-20T07:13:21;97465.88;;;5.72;100.00
54417;BME280;40326;51.220;7.250;2022-11-20T07:15:47;97465.88;;;5.72;100.00
54417;BME280;40326;51.220;7.250;2022-11-20T07:18:12;97465.88;;;5.72;100.00
54417;BME280;40326;51.220;7.250;2022-11-20T07:20:37;97465.88;;;5.72;100.00
54417;BME280;40326;51.220;7.250;2022-11-20T07:23:02;97465.88;;;5.72;100.00
54417;BME280;40326;51.220;7.250;2022-11-20T07:25:28;97465.88;;;5.72;100.00
54417;BME280;40326;51.220;7.250;2022-11-20T07:28:00;97465.88;;;5.72;100.00
54417;BME280;40326;51.220;7.250;2022-11-20T07:30:29;97465.88;;;5.72;100.00
54417;BME280;40326;51.220;7.250;2022-11-20T07:32:55;97465.88;;;5.72;100.00
54417;BME280;40326;51.220;7.250;2022-11-20T07:35:22;97465.88;;;5.72;100.00
54417;BME280;40326;51.220;7.250;2022-11-20T07:37:48;97465.88;;;5.72;100.00
54417;BME280;40326;51.220;7.250;2022-11-20T07:40:14;97465.88;;;5.72;100.00
54417;BME280;40326;51.220;7.250;2022-11-20T07:42:50;97465.88;;;5.72;100.00
54417;BME280;40326;51.220;7.250;2022-11-20T07:45:16;97465.88;;;5.72;100.00
54417;BME280;40326;51.220;7.250;2022-11-20T07:47:42;97465.88;;;5.72;100.00
54417;BME280;40326;51.220;7.250;2022-11-20T07:50:07;97465.88;;;5.72;100.00
54417;BME280;40326;51.220;7.250;2022-11-20T07:52:33;97465.88;;;5.72;100.00
54417;BME280;40326;51.220;7.250;2022-11-20T07:54:58;97465.88;;;5.72;100.00
54417;BME280;40326;51.220;7.250;2022-11-20T07:57:23;97465.88;;;5.72;100.00
54417;BME280;40326;51.220;7.250;2022-11-20T07:59:48;97465.88;;;5.72;100.00
54417;BME280;40326;51.220;7.250;2022-11-20T08:02:14;97465.88;;;5.72;100.00
54417;BME280;40326;51.220;7.250;2022-11-20T08:04:39;97465.88;;;5.72;100.00
54417;BME280;40326;51.220;7.250;2022-11-20T08:07:04;97465.88;;;5.72;100.00
54417;BME280;40326;51.220;7.250;2022-11-20T08:09:30;97465.88;;;5.72;100.00
54417;BME280;40326;51.220;7.250;2022-11-20T08:11:55;97465.88;;;5.72;100.00
54417;BME280;40326;51.220;7.250;2022-11-20T08:14:39;97465.88;;;5.72;100.00
54417;BME280;40326;51.220;7.250;2022-11-20T08:17:04;97465.88;;;5.72;100.00
54417;BME280;40326;51.220;7.250;2022-11-20T08:19:29;97465.88;;;5.72;100.00
54417;BME280;40326;51.220;7.250;2022-11-20T08:21:55;97465.88;;;5.72;100.00
54417;BME280;40326;51.220;7.250;2022-11-20T08:24:20;97465.88;;;5.72;100.00
54417;BME280;40326;51.220;7.250;2022-11-20T08:26:46;97465.88;;;5.72;100.00
54417;BME280;40326;51.220;7.250;2022-11-20T08:29:11;97465.88;;;5.72;100.00
54417;BME280;40326;51.220;7.250;2022-11-20T08:31:36;97465.88;;;5.72;100.00
54417;BME280;40326;51.220;7.250;2022-11-20T08:34:02;97465.88;;;5.72;100.00
54417;BME280;40326;51.220;7.250;2022-11-20T08:36:27;97465.88;;;5.72;100.00
54417;BME280;40326;51.220;7.250;2022-11-20T08:38:54;97465.88;;;5.72;100.00
54417;BME280;40326;51.220;7.250;2022-11-20T08:41:20;97465.88;;;5.72;100.00
54417;BME280;40326;51.220;7.250;2022-11-20T08:43:56;97465.88;;;5.72;100.00
54417;BME280;40326;51.220;7.250;2022-11-20T08:46:25;97465.88;;;5.72;100.00
54417;BME280;40326;51.220;7.250;2022-11-20T08:48:51;97465.88;;;5.72;100.00
54417;BME280;40326;51.220;7.250;2022-11-20T08:51:17;97465.88;;;5.72;100.00
54417;BME280;40326;51.220;7.250;2022-11-20T08:53:43;97465.88;;;5.72;100.00
54417;BME280;40326;51.220;7.250;2022-11-20T08:56:08;97465.88;;;5.72;100.00
54417;BME280;40326;51.220;7.250;2022-11-20T08:58:34;97465.88;;;5.72;100.00
54417;BME280;40326;51.220;7.250;2022-11-20T09:01:01;97465.88;;;5.72;100.00
54417;BME280;40326;51.220;7.250;2022-11-20T09:03:26;97465.88;;;5.72;100.00
54417;BME280;40326;51.220;7.250;2022-11-20T09:06:00;97465.88;;;5.72;100.00
54417;BME280;40326;51.220;7.250;2022-11-20T09:08:26;97465.88;;;5.72;100.00
54417;BME280;40326;51.220;7.250;2022-11-20T09:10:52;97465.88;;;5.72;100.00
54417;BME280;40326;51.220;7.250;2022-11-20T09:13:19;97465.88;;;5.72;100.00
54417;BME280;40326;51.220;7.250;2022-11-20T09:15:44;97465.88;;;5.72;100.00
54417;BME280;40326;51.220;7.250;2022-11-20T09:18:09;97465.88;;;5.72;100.00
54417;BME280;40326;51.220;7.250;2022-11-20T09:20:35;97465.88;;;5.72;100.00
54417;BME280;40326;51.220;7.250;2022-11-20T09:23:00;97465.88;;;5.72;100.00
54417;BME280;40326;51.220;7.250;2022-11-20T09:25:25;97465.88;;;5.72;100.00
54417;BME280;40326;51.220;7.250;2022-11-20T09:27:55;97465.88;;;5.72;100.00
54417;BME280;40326;51.220;7.250;2022-11-20T09:30:21;97465.88;;;5.72;100.00
54417;BME280;40326;51.220;7.250;2022-11-20T09:32:46;97465.88;;;5.72;100.00
54417;BME280;40326;51.220;7.250;2022-11-20T09:35:11;97465.88;;;5.72;100.00
54417;BME280;40326;51.220;7.250;2022-11-20T09:37:37;97465.88;;;5.72;100.00
54417;BME280;40326;51.220;7.250;2022-11-20T09:40:02;97465.88;;;5.72;100.00
54417;BME280;40326;51.220;7.250;2022-11-20T09:42:41;97465.88;;;5.72;100.00
54417;BME280;40326;51.220;7.250;2022-11-20T09:45:18;97465.88;;;5.72;100.00
54417;BME280;40326;51.220;7.250;2022-11-20T09:47:58;97465.88;;;5.72;100.00
54417;BME280;40326;51.220;7.250;2022-11-20T09:50:39;97465.88;;;5.72;100.00
54417;BME280;40326;51.220;7.250;2022-11-20T09:53:42;97465.88;;;5.72;100.00
54417;BME280;40326;51.220;7.250;2022-11-20T09:56:10;97465.88;;;5.72;100.00
54417;BME280;40326;51.220;7.250;2022-11-20T09:58:42;97465.88;;;5.72;100.00
54417;BME280;40326;51.220;7.250;2022-11-20T10:01:15;97465.88;;;5.72;100.00
54417;BME280;40326;51.220;7.250;2022-11-20T10:04:18;97465.88;;;5.72;100.00
54417;BME280;40326;51.220;7.250;2022-11-20T10:06:56;97465.88;;;5.72;100.00
54417;BME280;40326;51.220;7.250;2022-11-20T10:09:35;97465.88;;;5.72;100.00
54417;BME280;40326;51.220;7.250;2022-11-20T10:18:21;97465.88;;;5.72;100.00
54417;BME280;40326;51.220;7.250;2022-11-20T10:25:58;97719.72;;;4.20;100.00
54417;BME280;40326;51.220;7.250;2022-11-20T10:31:16;97719.72;;;4.20;100.00
54417;BME280;40326;51.220;7.250;2022-11-20T10:33:45;97719.72;;;4.20;100.00
54417;BME280;40326;51.220;7.250;2022-11-20T10:36:20;97703.66;;;4.67;100.00
54417;BME280;40326;51.220;7.250;2022-11-20T10:38:51;97703.66;;;4.67;100.00
54417;BME280;40326;51.220;7.250;2022-11-20T10:41:28;97703.66;;;4.67;100.00
54417;BME280;40326;51.220;7.250;2022-11-20T10:44:02;97703.66;;;4.67;100.00
54417;BME280;40326;51.220;7.250;2022-11-20T10:46:34;97691.25;;;4.82;100.00
54417;BME280;40326;51.220;7.250;2022-11-20T10:49:05;97685.88;;;5.12;100.00
54417;BME280;40326;51.220;7.250;2022-11-20T11:00:00;97685.88;;;5.12;100.00
54417;BME280;40326;51.220;7.250;2022-11-20T11:02:43;97685.88;;;5.12;100.00
54417;BME280;40326;51.220;7.250;2022-11-20T11:05:32;97676.91;;;4.81;100.00
54417;BME280;40326;51.220;7.250;2022-11-20T11:07:59;97676.91;;;4.81;100.00
54417;BME280;40326;51.220;7.250;2022-11-20T11:10:37;97676.91;;;4.81;100.00
54417;BME280;40326;51.220;7.250;2022-11-20T11:13:06;97667.69;;;4.57;100.00
54417;BME280;40326;51.220;7.250;2022-11-20T11:15:40;97660.53;;;4.68;100.00
54417;BME280;40326;51.220;7.250;2022-11-20T11:18:08;97660.53;;;4.68;100.00
54417;BME280;40326;51.220;7.250;2022-11-20T11:20:34;97660.53;;;4.68;100.00
54417;BME280;40326;51.220;7.250;2022-11-20T11:23:00;97652.09;;;5.32;100.00
54417;BME280;40326;51.220;7.250;2022-11-20T11:25:29;97652.09;;;5.32;100.00
54417;BME280;40326;51.220;7.250;2022-11-20T11:27:58;97657.75;;;5.38;100.00
54417;BME280;40326;51.220;7.250;2022-11-20T11:30:25;97645.22;;;5.13;100.00
54417;BME280;40326;51.220;7.250;2022-11-20T11:33:02;97647.06;;;5.10;100.00
54417;BME280;40326;51.220;7.250;2022-11-20T11:35:28;97644.72;;;5.05;100.00
54417;BME280;40326;51.220;7.250;2022-11-20T11:38:11;97642.41;;;5.41;100.00
54417;BME280;40326;51.220;7.250;2022-11-20T11:40:37;97642.41;;;5.41;100.00
54417;BME280;40326;51.220;7.250;2022-11-20T11:43:06;97627.78;;;5.26;100.00
54417;BME280;40326;51.220;7.250;2022-11-20T11:45:54;97622.09;;;5.21;100.00
54417;BME280;40326;51.220;7.250;2022-11-20T11:48:20;97613.44;;;5.05;100.00
54417;BME280;40326;51.220;7.250;2022-11-20T11:50:49;97614.28;;;5.05;100.00
54417;BME280;40326;51.220;7.250;2022-11-20T11:53:20;97606.22;;;5.16;100.00
54417;BME280;40326;51.220;7.250;2022-11-20T11:55:52;97601.97;;;5.37;100.00
54417;BME280;40326;51.220;7.250;2022-11-20T11:58:51;97592.38;;;5.03;100.00
54417;BME280;40326;51.220;7.250;2022-11-20T12:01:35;97591.97;;;4.92;100.00
54417;BME280;40326;51.220;7.250;2022-11-20T12:04:36;97590.69;;;4.81;100.00
54417;BME280;40326;51.220;7.250;2022-11-20T12:09:59;97597.59;;;4.56;100.00
54417;BME280;40326;51.220;7.250;2022-11-20T12:12:36;97589.44;;;4.49;100.00
54417;BME280;40326;51.220;7.250;2022-11-20T12:15:06;97586.34;;;4.63;100.00
54417;BME280;40326;51.220;7.250;2022-11-20T12:17:35;97584.88;;;4.36;100.00
54417;BME280;40326;51.220;7.250;2022-11-20T12:20:01;97581.50;;;4.57;100.00
54417;BME280;40326;51.220;7.250;2022-11-20T12:25:17;97577.47;;;4.53;100.00
54417;BME280;40326;51.220;7.250;2022-11-20T12:34:05;97584.47;;;4.24;100.00
54417;BME280;40326;51.220;7.250;2022-11-20T12:36:50;97576.03;;;4.46;100.00
54417;BME280;40326;51.220;7.250;2022-11-20T12:39:25;97578.22;;;4.33;100.00
54417;BME280;40326;51.220;7.250;2022-11-20T12:42:02;97586.09;;;4.47;100.00
54417;BME280;40326;51.220;7.250;2022-11-20T12:50:46;97575.69;;;4.55;100.00
54417;BME280;40326;51.220;7.250;2022-11-20T12:59:06;97556.41;;;4.51;100.00
54417;BME280;40326;51.220;7.250;2022-11-20T13:01:52;97552.75;;;4.14;100.00
54417;BME280;40326;51.220;7.250;2022-11-20T13:07:02;97540.94;;;4.57;100.00
54417;BME280;40326;51.220;7.250;2022-11-20T13:09:29;97542.41;;;4.42;100.00
54417;BME280;40326;51.220;7.250;2022-11-20T13:14:34;97532.81;;;4.49;100.00
54417;BME280;40326;51.220;7.250;2022-11-20T13:17:05;97522.13;;;4.42;100.00
54417;BME280;40326;51.220;7.250;2022-11-20T13:19:34;97519.16;;;4.53;100.00
54417;BME280;40326;51.220;7.250;2022-11-20T13:22:00;97519.16;;;4.53;100.00
54417;BME280;40326;51.220;7.250;2022-11-20T13:24:28;97519.16;;;4.53;100.00
54417;BME280;40326;51.220;7.250;2022-11-20T13:29:33;97519.16;;;4.53;100.00
54417;BME280;40326;51.220;7.250;2022-11-20T13:32:17;97519.16;;;4.53;100.00
54417;BME280;40326;51.220;7.250;2022-11-20T13:34:56;97519.16;;;4.53;100.00
54417;BME280;40326;51.220;7.250;2022-11-20T13:37:33;97499.25;;;4.44;100.00
54417;BME280;40326;51.220;7.250;2022-11-20T13:40:12;97497.09;;;4.55;100.00
54417;BME280;40326;51.220;7.250;2022-11-20T13:42:51;97500.53;;;4.54;100.00
54417;BME280;40326;51.220;7.250;2022-11-20T13:45:28;97486.09;;;4.76;100.00
54417;BME280;40326;51.220;7.250;2022-11-20T13:47:54;97482.63;;;4.59;100.00
54417;BME280;40326;51.220;7.250;2022-11-20T13:50:38;97483.69;;;4.73;100.00
54417;BME280;40326;51.220;7.250;2022-11-20T13:53:36;97480.94;;;4.57;100.00
54417;BME280;40326;51.220;7.250;2022-11-20T13:56:32;97480.94;;;4.57;100.00
54417;BME280;40326;51.220;7.250;2022-11-20T14:01:45;97468.75;;;4.25;100.00
54417;BME280;40326;51.220;7.250;2022-11-20T14:04:17;97465.78;;;4.36;100.00
54417;BME280;40326;51.220;7.250;2022-11-20T14:06:45;97462.88;;;4.45;100.00
54417;BME280;40326;51.220;7.250;2022-11-20T14:09:32;97463.16;;;4.59;100.00
54417;BME280;40326;51.220;7.250;2022-11-20T14:11:58;97461.22;;;4.44;100.00
54417;BME280;40326;51.220;7.250;2022-11-20T14:14:26;97450.44;;;4.39;100.00
54417;BME280;40326;51.220;7.250;2022-11-20T14:17:03;97455.13;;;4.48;100.00
54417;BME280;40326;51.220;7.250;2022-11-20T14:19:31;97446.63;;;4.28;100.00
54417;BME280;40326;51.220;7.250;2022-11-20T14:22:14;97448.88;;;4.36;100.00
54417;BME280;40326;51.220;7.250;2022-11-20T14:24:41;97448.88;;;4.36;100.00
54417;BME280;40326;51.220;7.250;2022-11-20T14:27:18;97448.88;;;4.36;100.00
54417;BME280;40326;51.220;7.250;2022-11-20T14:29:46;97448.88;;;4.36;100.00
54417;BME280;40326;51.220;7.250;2022-11-20T14:32:15;97439.94;;;4.48;100.00
54417;BME280;40326;51.220;7.250;2022-11-20T14:34:43;97438.78;;;4.35;100.00
54417;BME280;40326;51.220;7.250;2022-11-20T14:37:19;97445.28;;;4.42;100.00
54417;BME280;40326;51.220;7.250;2022-11-20T14:39:50;97433.69;;;4.14;100.00
54417;BME280;40326;51.220;7.250;2022-11-20T14:42:24;97431.56;;;4.25;100.00
54417;BME280;40326;51.220;7.250;2022-11-20T14:44:52;97423.81;;;4.28;100.00
54417;BME280;40326;51.220;7.250;2022-11-20T14:47:22;97428.22;;;4.25;100.00
54417;BME280;40326;51.220;7.250;2022-11-20T14:49:50;97419.72;;;4.26;100.00
54417;BME280;40326;51.220;7.250;2022-11-20T14:52:22;97406.59;;;4.37;100.00
54417;BME280;40326;51.220;7.250;2022-11-20T14:54:50;97409.34;;;4.52;100.00
54417;BME280;40326;51.220;7.250;2022-11-20T14:57:42;97409.34;;;4.52;100.00
54417;BME280;40326;51.220;7.250;2022-11-20T15:00:17;97409.34;;;4.52;100.00
54417;BME280;40326;51.220;7.250;2022-11-20T15:02:45;97394.38;;;4.06;100.00
54417;BME280;40326;51.220;7.250;2022-11-20T15:05:12;97388.03;;;4.16;100.00
54417;BME280;40326;51.220;7.250;2022-11-20T15:07:46;97387.22;;;4.15;100.00
54417;BME280;40326;51.220;7.250;2022-11-20T15:12:45;97387.22;;;4.15;100.00
54417;BME280;40326;51.220;7.250;2022-11-20T15:15:12;97387.22;;;4.15;100.00
54417;BME280;40326;51.220;7.250;2022-11-20T15:17:40;97387.22;;;4.15;100.00
54417;BME280;40326;51.220;7.250;2022-11-20T15:20:13;97387.22;;;4.15;100.00
54417;BME280;40326;51.220;7.250;2022-11-20T15:22:40;97387.22;;;4.15;100.00
54417;BME280;40326;51.220;7.250;2022-11-20T15:25:16;97387.22;;;4.15;100.00
54417;BME280;40326;51.220;7.250;2022-11-20T15:27:43;97387.22;;;4.15;100.00
54417;BME280;40326;51.220;7.250;2022-11-20T15:30:14;97387.22;;;4.15;100.00
54417;BME280;40326;51.220;7.250;2022-11-20T15:32:40;97387.22;;;4.15;100.00
54417;BME280;40326;51.220;7.250;2022-11-20T15:35:05;97387.22;;;4.15;100.00
54417;BME280;40326;51.220;7.250;2022-11-20T15:37:31;97387.22;;;4.15;100.00
54417;BME280;40326;51.220;7.250;2022-11-20T15:39:56;97387.22;;;4.15;100.00
54417;BME280;40326;51.220;7.250;2022-11-20T15:42:22;97387.22;;;4.15;100.00
54417;BME280;40326;51.220;7.250;2022-11-20T15:44:47;97387.22;;;4.15;100.00
54417;BME280;40326;51.220;7.250;2022-11-20T15:47:12;97387.22;;;4.15;100.00
54417;BME280;40326;51.220;7.250;2022-11-20T15:49:37;97330.72;;;4.34;100.00
54417;BME280;40326;51.220;7.250;2022-11-20T15:52:03;97334.66;;;4.41;100.00
54417;BME280;40326;51.220;7.250;2022-11-20T15:54:28;97334.66;;;4.41;100.00
54417;BME280;40326;51.220;7.250;2022-11-20T15:56:53;97325.78;;;4.31;100.00
54417;BME280;40326;51.220;7.250;2022-11-20T15:59:19;97338.69;;;4.45;100.00
54417;BME280;40326;51.220;7.250;2022-11-20T16:01:45;97333.88;;;4.39;100.00
54417;BME280;40326;51.220;7.250;2022-11-20T16:04:15;97337.06;;;4.44;100.00
54417;BME280;40326;51.220;7.250;2022-11-20T16:06:41;97329.63;;;4.39;100.00
54417;BME280;40326;51.220;7.250;2022-11-20T16:09:07;97331.66;;;4.31;100.00
54417;BME280;40326;51.220;7.250;2022-11-20T16:11:33;97330.59;;;4.37;100.00
54417;BME280;40326;51.220;7.250;2022-11-20T16:14:01;97324.88;;;4.52;100.00
54417;BME280;40326;51.220;7.250;2022-11-20T16:16:45;97321.47;;;4.53;100.00
54417;BME280;40326;51.220;7.250;2022-11-20T16:19:11;97330.19;;;4.46;100.00
54417;BME280;40326;51.220;7.250;2022-11-20T16:21:37;97324.06;;;4.51;100.00
54417;BME280;40326;51.220;7.250;2022-11-20T16:24:05;97326.88;;;4.64;100.00
54417;BME280;40326;51.220;7.250;2022-11-20T16:26:32;97324.75;;;4.55;100.00
54417;BME280;40326;51.220;7.250;2022-11-20T16:29:02;97322.97;;;4.57;100.00
54417;BME280;40326;51.220;7.250;2022-11-20T16:31:28;97322.03;;;4.60;100.00
54417;BME280;40326;51.220;7.250;2022-11-20T16:33:55;97310.53;;;4.71;100.00
54417;BME280;40326;51.220;7.250;2022-11-20T16:36:23;97315.44;;;4.74;100.00
54417;BME280;40326;51.220;7.250;2022-11-20T16:38:55;97315.44;;;4.74;100.00
54417;BME280;40326;51.220;7.250;2022-11-20T16:41:22;97308.63;;;4.76;100.00
54417;BME280;40326;51.220;7.250;2022-11-20T16:43:50;97304.63;;;4.90;100.00
54417;BME280;40326;51.220;7.250;2022-11-20T16:46:18;97306.69;;;5.00;100.00
54417;BME280;40326;51.220;7.250;2022-11-20T16:48:44;97289.91;;;4.79;100.00
54417;BME280;40326;51.220;7.250;2022-11-20T16:51:11;97289.91;;;4.79;100.00
54417;BME280;40326;51.220;7.250;2022-11-20T16:53:37;97289.91;;;4.79;100.00
54417;BME280;40326;51.220;7.250;2022-11-20T16:56:14;97289.91;;;4.79;100.00
54417;BME280;40326;51.220;7.250;2022-11-20T16:58:44;97289.91;;;4.79;100.00
54417;BME280;40326;51.220;7.250;2022-11-20T17:01:11;97272.28;;;4.95;100.00
54417;BME280;40326;51.220;7.250;2022-11-20T17:03:38;97272.28;;;4.95;100.00
54417;BME280;40326;51.220;7.250;2022-11-20T17:06:17;97263.50;;;4.83;100.00
54417;BME280;40326;51.220;7.250;2022-11-20T17:08:43;97268.44;;;5.05;100.00
54417;BME280;40326;51.220;7.250;2022-11-20T17:11:11;97268.44;;;5.05;100.00
54417;BME280;40326;51.220;7.250;2022-11-20T17:13:36;97264.53;;;4.98;100.00
54417;BME280;40326;51.220;7.250;2022-11-20T17:16:14;97254.88;;;5.06;100.00
54417;BME280;40326;51.220;7.250;2022-11-20T17:18:39;97254.88;;;5.06;100.00
54417;BME280;40326;51.220;7.250;2022-11-20T17:21:06;97247.19;;;5.07;100.00
54417;BME280;40326;51.220;7.250;2022-11-20T17:23:36;97247.19;;;5.07;100.00
54417;BME280;40326;51.220;7.250;2022-11-20T17:26:09;97233.59;;;5.08;100.00
54417;BME280;40326;51.220;7.250;2022-11-20T17:28:35;97230.16;;;5.09;100.00
54417;BME280;40326;51.220;7.250;2022-11-20T17:31:02;97230.03;;;5.12;100.00
54417;BME280;40326;51.220;7.250;2022-11-20T17:33:28;97230.03;;;5.12;100.00
54417;BME280;40326;51.220;7.250;2022-11-20T17:35:54;97230.03;;;5.12;100.00
54417;BME280;40326;51.220;7.250;2022-11-20T17:38:19;97204.69;;;5.12;100.00
54417;BME280;40326;51.220;7.250;2022-11-20T17:40:45;97209.75;;;5.12;100.00
54417;BME280;40326;51.220;7.250;2022-11-20T17:43:10;97209.75;;;5.12;100.00
54417;BME280;40326;51.220;7.250;2022-11-20T17:45:35;97195.50;;;5.27;100.00
54417;BME280;40326;51.220;7.250;2022-11-20T17:48:01;97194.09;;;5.03;100.00
54417;BME280;40326;51.220;7.250;2022-11-20T17:50:26;97187.34;;;5.21;100.00
54417;BME280;40326;51.220;7.250;2022-11-20T17:52:51;97182.44;;;5.18;100.00
54417;BME280;40326;51.220;7.250;2022-11-20T17:55:17;97183.13;;;5.21;100.00
54417;BME280;40326;51.220;7.250;2022-11-20T17:57:42;97183.13;;;5.21;100.00
54417;BME280;40326;51.220;7.250;2022-11-20T18:00:17;97166.22;;;5.20;100.00
54417;BME280;40326;51.220;7.250;2022-11-20T18:02:43;97161.22;;;5.19;100.00
54417;BME280;40326;51.220;7.250;2022-11-20T18:05:08;97161.22;;;5.19;100.00
54417;BME280;40326;51.220;7.250;2022-11-20T18:07:34;97161.22;;;5.19;100.00
54417;BME280;40326;51.220;7.250;2022-11-20T18:09:59;97137.00;;;5.13;100.00
54417;BME280;40326;51.220;7.250;2022-11-20T18:12:24;97132.38;;;5.21;100.00
54417;BME280;40326;51.220;7.250;2022-11-20T18:14:50;97132.38;;;5.21;100.00
54417;BME280;40326;51.220;7.250;2022-11-20T18:17:15;97132.38;;;5.21;100.00
54417;BME280;40326;51.220;7.250;2022-11-20T18:19:44;97132.38;;;5.21;100.00
54417;BME280;40326;51.220;7.250;2022-11-20T18:22:11;97132.38;;;5.21;100.00
54417;BME280;40326;51.220;7.250;2022-11-20T18:24:36;97132.38;;;5.21;100.00
54417;BME280;40326;51.220;7.250;2022-11-20T18:27:04;97132.38;;;5.21;100.00
54417;BME280;40326;51.220;7.250;2022-11-20T18:29:30;97132.38;;;5.21;100.00
54417;BME280;40326;51.220;7.250;2022-11-20T18:31:57;97132.38;;;5.21;100.00
54417;BME280;40326;51.220;7.250;2022-11-20T18:34:22;97132.38;;;5.21;100.00
54417;BME280;40326;51.220;7.250;2022-11-20T18:36:48;97085.72;;;5.24;100.00
54417;BME280;40326;51.220;7.250;2022-11-20T18:39:14;97085.72;;;5.24;100.00
54417;BME280;40326;51.220;7.250;2022-11-20T18:41:40;97085.72;;;5.24;100.00